Davenport, WA

11:58 PM PDT on August 28, 2014 (GMT -0700)
Davenport, WA | Change Station
CLOSE
Current Station
Personal Weather Station
Location: Davenport, WA
Elevation: 2375 ft
Nearby Weather Stations

Elev 2375 ft 47.65 °N, 118.15 °W | Updated 13 minutes ago

Clear
Clear
59.5 °F
Feels Like 59.5 °F
N
0.0
Wind Variable Wind from South

Today
High -- | Low -- °F
--% Chance of Precip.
Yesterday
High -- | Low -- °F
Precip. -- in
6:05 AM 7:40 PM
Waxing Crescent, 12% visible
Pressure 29.93 in
Visibility 10.0 miles
Clouds Clear
Dew Point 45 °F
Humidity 58%
Rainfall 0.00 in
Snow Depth Not available.
UV 0 out of 12
Pollen 7.70 out of 12
PM2.5 Good
Flu Activity Not available.
METAR KSKA 290558Z AUTO 25006KT 10SM CLR 19/06 A2996 RMK AO2 SLP133 T01880064 10273 20184 50002

More Conditions Fewer Conditions

Pressure 29.93 in
Visibility 10.0 miles
Clouds Clear
Dew Point 45 °F
Humidity 58%
Rainfall 0.00 in
Snow Depth Not available.
UV 0 out of 12
Pollen 7.70 out of 12
PM2.5 Good
Flu Activity Not available.
METAR KSKA 290558Z AUTO 25006KT 10SM CLR 19/06 A2996 RMK AO2 SLP133 T01880064 10273 20184 50002

More Conditions Fewer Conditions

10-Day Weather Forecast

Almanac

Astronomy

Aug. 28, 2014 Rise Set
Actual Time 6:05 AM PDT 7:40 PM PDT
Civil Twilight 5:33 AM PDT 8:12 PM PDT
Nautical Twilight 4:54 AM PDT 8:52 PM PDT
Astronomical Twilight 4:11 AM PDT 9:34 PM PDT
Moon 9:18 AM PDT (8/28) 8:50 PM PDT (8/28)
Length of Visible Light 14h 39m
Length of Day
13h 34m
Tomorrow will be 3m 17s shorter.
Waxing Crescent, 12% of the Moon is Illuminated
Aug 29
Waxing Crescent
Sep 2
First Quarter
Sep 8
Full
Sep 15
Last Quarter
Sep 24
New

Community

WunderPhotos

Upload Photos

1,748,197 photos uploaded!

Nearby

Air Quality

  Air Quality AQ Index Pollutant
Yesterday Good
PM10
Yesterday Good
OZONE
Current Good
PM2.5
Thursday Good
PM10
Thursday Good
OZONE
Friday Good
PM10
Friday Good
OZONE

Snow Depth

Station Depth Elevation
Quartz Peak 1 in 4700 ft
Moses Mountain 1 in 5300 ft
Sourdough Gulch 0 in 4000 ft
Trough 1 in 5300 ft
Spruce Springs 0 in 5700 ft

Earthquake Activity

City Distance Mag. Time & Date
No recent earthquake activity has been reported nearby.
Minimum magnitude displayed is 2.5.

Coastal Water Temperatures

Place Temperature
No Stations Reporting

Nearby Weather Stations